sensor_id;sensor_type;location;lat;lon;timestamp;temperature;humidity
12233;DHT22;6179;51.748;8.728;2022-08-03T00:05:59;19.70;97.00
12233;DHT22;6179;51.748;8.728;2022-08-03T00:12:00;19.80;96.50
12233;DHT22;6179;51.748;8.728;2022-08-03T00:18:00;19.50;97.70
12233;DHT22;6179;51.748;8.728;2022-08-03T00:24:01;19.40;97.90
12233;DHT22;6179;51.748;8.728;2022-08-03T00:30:02;19.30;98.30
12233;DHT22;6179;51.748;8.728;2022-08-03T00:36:03;19.20;98.30
12233;DHT22;6179;51.748;8.728;2022-08-03T00:42:04;19.20;98.30
12233;DHT22;6179;51.748;8.728;2022-08-03T00:48:07;19.10;98.30
12233;DHT22;6179;51.748;8.728;2022-08-03T00:54:09;19.20;98.30
12233;DHT22;6179;51.748;8.728;2022-08-03T01:00:11;19.00;98.30
12233;DHT22;6179;51.748;8.728;2022-08-03T01:06:16;19.00;98.30
12233;DHT22;6179;51.748;8.728;2022-08-03T01:31:43;18.70;98.30
12233;DHT22;6179;51.748;8.728;2022-08-03T01:38:01;18.70;98.30
12233;DHT22;6179;51.748;8.728;2022-08-03T01:44:03;18.80;98.30
12233;DHT22;6179;51.748;8.728;2022-08-03T01:50:07;18.70;98.30
12233;DHT22;6179;51.748;8.728;2022-08-03T01:56:09;18.60;98.30
12233;DHT22;6179;51.748;8.728;2022-08-03T02:02:12;18.60;98.30
12233;DHT22;6179;51.748;8.728;2022-08-03T02:08:15;18.60;98.30
12233;DHT22;6179;51.748;8.728;2022-08-03T02:14:18;18.50;98.30
12233;DHT22;6179;51.748;8.728;2022-08-03T02:20:20;18.50;98.30
12233;DHT22;6179;51.748;8.728;2022-08-03T02:26:22;18.40;98.30
12233;DHT22;6179;51.748;8.728;2022-08-03T02:32:29;18.30;98.30
12233;DHT22;6179;51.748;8.728;2022-08-03T02:38:32;18.40;98.30
12233;DHT22;6179;51.748;8.728;2022-08-03T02:44:34;18.20;98.30
12233;DHT22;6179;51.748;8.728;2022-08-03T02:50:37;18.20;98.30
12233;DHT22;6179;51.748;8.728;2022-08-03T02:56:39;18.20;98.30
12233;DHT22;6179;51.748;8.728;2022-08-03T03:02:41;18.30;98.30
12233;DHT22;6179;51.748;8.728;2022-08-03T03:08:42;18.30;98.30
12233;DHT22;6179;51.748;8.728;2022-08-03T03:14:43;18.30;98.30
12233;DHT22;6179;51.748;8.728;2022-08-03T03:20:44;18.30;98.30
12233;DHT22;6179;51.748;8.728;2022-08-03T03:26:46;18.30;98.30
12233;DHT22;6179;51.748;8.728;2022-08-03T03:32:47;18.30;98.30
12233;DHT22;6179;51.748;8.728;2022-08-03T03:38:48;18.20;98.30
12233;DHT22;6179;51.748;8.728;2022-08-03T03:44:49;18.20;98.30
12233;DHT22;6179;51.748;8.728;2022-08-03T03:50:50;18.20;98.30
12233;DHT22;6179;51.748;8.728;2022-08-03T03:56:51;18.10;98.30
12233;DHT22;6179;51.748;8.728;2022-08-03T04:02:51;18.10;98.30
12233;DHT22;6179;51.748;8.728;2022-08-03T04:08:52;18.00;98.30
12233;DHT22;6179;51.748;8.728;2022-08-03T04:15:20;18.00;98.30
12233;DHT22;6179;51.748;8.728;2022-08-03T04:21:23;18.00;98.30
12233;DHT22;6179;51.748;8.728;2022-08-03T04:27:26;18.00;98.30
12233;DHT22;6179;51.748;8.728;2022-08-03T04:33:30;18.00;98.30
12233;DHT22;6179;51.748;8.728;2022-08-03T04:39:32;18.00;98.30
12233;DHT22;6179;51.748;8.728;2022-08-03T04:45:35;18.20;98.30
12233;DHT22;6179;51.748;8.728;2022-08-03T04:51:37;18.20;98.30
12233;DHT22;6179;51.748;8.728;2022-08-03T04:57:39;18.30;98.30
12233;DHT22;6179;51.748;8.728;2022-08-03T05:03:40;18.40;98.30
12233;DHT22;6179;51.748;8.728;2022-08-03T05:09:41;18.50;98.30
12233;DHT22;6179;51.748;8.728;2022-08-03T05:15:41;18.70;98.30
12233;DHT22;6179;51.748;8.728;2022-08-03T05:21:42;18.90;98.30
12233;DHT22;6179;51.748;8.728;2022-08-03T05:27:43;19.20;98.30
12233;DHT22;6179;51.748;8.728;2022-08-03T05:33:43;19.40;98.30
12233;DHT22;6179;51.748;8.728;2022-08-03T05:39:44;19.60;98.00
12233;DHT22;6179;51.748;8.728;2022-08-03T05:45:44;20.00;97.30
12233;DHT22;6179;51.748;8.728;2022-08-03T05:51:45;20.40;96.10
12233;DHT22;6179;51.748;8.728;2022-08-03T05:57:46;20.60;95.30
12233;DHT22;6179;51.748;8.728;2022-08-03T06:03:48;21.10;94.00
12233;DHT22;6179;51.748;8.728;2022-08-03T06:09:49;21.50;93.20
12233;DHT22;6179;51.748;8.728;2022-08-03T06:15:50;21.80;92.90
12233;DHT22;6179;51.748;8.728;2022-08-03T06:21:50;22.30;91.70
12233;DHT22;6179;51.748;8.728;2022-08-03T06:27:51;23.00;89.30
12233;DHT22;6179;51.748;8.728;2022-08-03T06:33:52;23.50;88.10
12233;DHT22;6179;51.748;8.728;2022-08-03T06:39:53;23.80;87.80
12233;DHT22;6179;51.748;8.728;2022-08-03T06:45:53;24.10;86.60
12233;DHT22;6179;51.748;8.728;2022-08-03T06:51:54;24.50;86.30
12233;DHT22;6179;51.748;8.728;2022-08-03T06:57:56;24.80;85.90
12233;DHT22;6179;51.748;8.728;2022-08-03T07:03:56;25.20;85.90
12233;DHT22;6179;51.748;8.728;2022-08-03T07:09:57;25.80;83.30
12233;DHT22;6179;51.748;8.728;2022-08-03T07:15:58;26.10;80.80
12233;DHT22;6179;51.748;8.728;2022-08-03T07:21:58;26.40;79.20
12233;DHT22;6179;51.748;8.728;2022-08-03T07:27:59;26.60;78.00
12233;DHT22;6179;51.748;8.728;2022-08-03T07:34:00;27.00;75.40
12233;DHT22;6179;51.748;8.728;2022-08-03T07:40:02;26.90;77.00
12233;DHT22;6179;51.748;8.728;2022-08-03T07:46:03;26.80;77.20
12233;DHT22;6179;51.748;8.728;2022-08-03T07:52:04;27.10;76.40
12233;DHT22;6179;51.748;8.728;2022-08-03T07:58:23;27.70;74.60
12233;DHT22;6179;51.748;8.728;2022-08-03T08:04:24;28.00;72.40
12233;DHT22;6179;51.748;8.728;2022-08-03T08:10:25;28.10;71.10
12233;DHT22;6179;51.748;8.728;2022-08-03T08:16:26;28.40;72.50
12233;DHT22;6179;51.748;8.728;2022-08-03T08:22:26;28.60;68.10
12233;DHT22;6179;51.748;8.728;2022-08-03T08:28:28;28.10;72.70
12233;DHT22;6179;51.748;8.728;2022-08-03T08:34:28;28.30;69.10
12233;DHT22;6179;51.748;8.728;2022-08-03T08:40:29;28.40;69.10
12233;DHT22;6179;51.748;8.728;2022-08-03T08:46:32;28.50;70.70
12233;DHT22;6179;51.748;8.728;2022-08-03T08:52:33;28.80;66.80
12233;DHT22;6179;51.748;8.728;2022-08-03T08:58:37;29.00;67.80
12233;DHT22;6179;51.748;8.728;2022-08-03T09:04:38;29.00;68.90
12233;DHT22;6179;51.748;8.728;2022-08-03T09:10:39;29.60;68.10
12233;DHT22;6179;51.748;8.728;2022-08-03T09:16:55;29.70;65.80
12233;DHT22;6179;51.748;8.728;2022-08-03T09:23:06;29.80;67.00
12233;DHT22;6179;51.748;8.728;2022-08-03T09:29:10;30.00;66.70
12233;DHT22;6179;51.748;8.728;2022-08-03T09:35:14;29.80;65.20
12233;DHT22;6179;51.748;8.728;2022-08-03T09:41:18;29.80;65.30
12233;DHT22;6179;51.748;8.728;2022-08-03T09:47:30;30.20;65.10
12233;DHT22;6179;51.748;8.728;2022-08-03T09:53:44;30.10;64.40
12233;DHT22;6179;51.748;8.728;2022-08-03T09:59:45;30.30;65.70
12233;DHT22;6179;51.748;8.728;2022-08-03T10:05:45;30.60;66.20
12233;DHT22;6179;51.748;8.728;2022-08-03T10:11:46;31.00;63.60
12233;DHT22;6179;51.748;8.728;2022-08-03T10:17:48;30.80;62.90
12233;DHT22;6179;51.748;8.728;2022-08-03T10:23:49;30.80;63.20
12233;DHT22;6179;51.748;8.728;2022-08-03T10:29:52;30.40;62.90
12233;DHT22;6179;51.748;8.728;2022-08-03T10:35:56;30.70;64.20
12233;DHT22;6179;51.748;8.728;2022-08-03T10:41:57;30.60;63.70
12233;DHT22;6179;51.748;8.728;2022-08-03T10:47:59;30.80;63.70
12233;DHT22;6179;51.748;8.728;2022-08-03T10:54:01;31.20;62.40
12233;DHT22;6179;51.748;8.728;2022-08-03T11:00:02;30.70;62.60
12233;DHT22;6179;51.748;8.728;2022-08-03T11:19:59;31.10;62.60
12233;DHT22;6179;51.748;8.728;2022-08-03T11:26:17;31.20;61.10
12233;DHT22;6179;51.748;8.728;2022-08-03T11:39:13;31.40;61.40
12233;DHT22;6179;51.748;8.728;2022-08-03T11:45:14;31.60;62.30
12233;DHT22;6179;51.748;8.728;2022-08-03T11:57:31;32.40;60.30
12233;DHT22;6179;51.748;8.728;2022-08-03T12:03:33;32.00;61.80
12233;DHT22;6179;51.748;8.728;2022-08-03T12:09:34;31.80;59.80
12233;DHT22;6179;51.748;8.728;2022-08-03T12:15:36;31.70;63.40
12233;DHT22;6179;51.748;8.728;2022-08-03T12:21:49;31.80;61.40
12233;DHT22;6179;51.748;8.728;2022-08-03T12:27:51;32.10;61.00
12233;DHT22;6179;51.748;8.728;2022-08-03T12:34:04;31.80;58.90
12233;DHT22;6179;51.748;8.728;2022-08-03T12:40:06;32.20;60.60
12233;DHT22;6179;51.748;8.728;2022-08-03T12:46:14;32.10;61.80
12233;DHT22;6179;51.748;8.728;2022-08-03T12:52:18;32.30;60.70
12233;DHT22;6179;51.748;8.728;2022-08-03T12:58:34;32.50;56.90
12233;DHT22;6179;51.748;8.728;2022-08-03T13:04:36;32.40;59.50
12233;DHT22;6179;51.748;8.728;2022-08-03T13:10:37;32.40;55.70
12233;DHT22;6179;51.748;8.728;2022-08-03T13:16:37;32.80;56.80
12233;DHT22;6179;51.748;8.728;2022-08-03T13:22:38;32.70;57.10
12233;DHT22;6179;51.748;8.728;2022-08-03T13:28:39;32.60;60.60
12233;DHT22;6179;51.748;8.728;2022-08-03T13:34:39;32.50;61.20
12233;DHT22;6179;51.748;8.728;2022-08-03T13:40:40;32.40;58.20
12233;DHT22;6179;51.748;8.728;2022-08-03T13:46:41;32.70;57.60
12233;DHT22;6179;51.748;8.728;2022-08-03T13:52:42;31.90;59.70
12233;DHT22;6179;51.748;8.728;2022-08-03T13:58:42;32.40;58.50
12233;DHT22;6179;51.748;8.728;2022-08-03T14:04:43;32.70;61.30
12233;DHT22;6179;51.748;8.728;2022-08-03T14:10:44;32.90;58.70
12233;DHT22;6179;51.748;8.728;2022-08-03T14:16:45;32.60;55.80
12233;DHT22;6179;51.748;8.728;2022-08-03T14:22:45;32.80;59.50
12233;DHT22;6179;51.748;8.728;2022-08-03T14:28:46;33.00;59.20
12233;DHT22;6179;51.748;8.728;2022-08-03T14:34:47;33.10;55.30
12233;DHT22;6179;51.748;8.728;2022-08-03T14:40:48;33.10;60.70
12233;DHT22;6179;51.748;8.728;2022-08-03T14:46:49;32.90;59.20
12233;DHT22;6179;51.748;8.728;2022-08-03T14:52:50;33.00;59.70
12233;DHT22;6179;51.748;8.728;2022-08-03T14:58:50;33.00;57.50
12233;DHT22;6179;51.748;8.728;2022-08-03T15:04:51;33.20;54.70
12233;DHT22;6179;51.748;8.728;2022-08-03T15:10:53;33.10;57.70
12233;DHT22;6179;51.748;8.728;2022-08-03T15:16:53;32.50;61.40
12233;DHT22;6179;51.748;8.728;2022-08-03T15:22:54;32.70;56.70
12233;DHT22;6179;51.748;8.728;2022-08-03T15:28:55;32.90;56.80
12233;DHT22;6179;51.748;8.728;2022-08-03T15:34:56;33.00;60.00
12233;DHT22;6179;51.748;8.728;2022-08-03T15:40:57;32.70;59.70
12233;DHT22;6179;51.748;8.728;2022-08-03T15:46:58;32.80;60.30
12233;DHT22;6179;51.748;8.728;2022-08-03T15:52:59;32.80;59.70
12233;DHT22;6179;51.748;8.728;2022-08-03T15:58:59;32.60;56.50
12233;DHT22;6179;51.748;8.728;2022-08-03T16:05:00;32.90;57.80
12233;DHT22;6179;51.748;8.728;2022-08-03T16:11:01;32.90;57.10
12233;DHT22;6179;51.748;8.728;2022-08-03T16:17:02;33.00;56.00
12233;DHT22;6179;51.748;8.728;2022-08-03T16:23:04;32.90;54.90
12233;DHT22;6179;51.748;8.728;2022-08-03T16:29:04;32.40;58.50
12233;DHT22;6179;51.748;8.728;2022-08-03T16:35:06;32.40;58.60
12233;DHT22;6179;51.748;8.728;2022-08-03T16:41:06;32.40;62.30
12233;DHT22;6179;51.748;8.728;2022-08-03T16:47:07;32.30;60.50
12233;DHT22;6179;51.748;8.728;2022-08-03T16:53:09;32.10;61.50
12233;DHT22;6179;51.748;8.728;2022-08-03T16:59:09;32.10;59.30
12233;DHT22;6179;51.748;8.728;2022-08-03T17:05:10;32.10;63.00
12233;DHT22;6179;51.748;8.728;2022-08-03T17:11:11;31.90;59.60
12233;DHT22;6179;51.748;8.728;2022-08-03T17:17:15;31.90;58.50
12233;DHT22;6179;51.748;8.728;2022-08-03T17:29:27;31.50;62.10
12233;DHT22;6179;51.748;8.728;2022-08-03T17:35:28;31.30;63.80
12233;DHT22;6179;51.748;8.728;2022-08-03T17:41:31;31.00;64.60
12233;DHT22;6179;51.748;8.728;2022-08-03T17:47:37;30.90;64.50
12233;DHT22;6179;51.748;8.728;2022-08-03T17:53:44;30.90;65.60
12233;DHT22;6179;51.748;8.728;2022-08-03T17:59:56;30.90;62.70
12233;DHT22;6179;51.748;8.728;2022-08-03T18:06:04;30.70;65.80
12233;DHT22;6179;51.748;8.728;2022-08-03T18:12:12;30.60;66.60
12233;DHT22;6179;51.748;8.728;2022-08-03T18:18:16;30.50;66.80
12233;DHT22;6179;51.748;8.728;2022-08-03T18:24:18;30.20;66.70
12233;DHT22;6179;51.748;8.728;2022-08-03T18:30:19;29.90;67.80
12233;DHT22;6179;51.748;8.728;2022-08-03T18:36:20;29.70;67.90
12233;DHT22;6179;51.748;8.728;2022-08-03T18:42:21;29.50;68.60
12233;DHT22;6179;51.748;8.728;2022-08-03T18:48:30;29.30;69.60
12233;DHT22;6179;51.748;8.728;2022-08-03T19:00:57;28.80;70.80
12233;DHT22;6179;51.748;8.728;2022-08-03T19:07:02;28.50;71.10
12233;DHT22;6179;51.748;8.728;2022-08-03T19:13:22;28.20;72.80
12233;DHT22;6179;51.748;8.728;2022-08-03T19:19:23;27.90;72.90
12233;DHT22;6179;51.748;8.728;2022-08-03T19:25:25;27.70;73.10
12233;DHT22;6179;51.748;8.728;2022-08-03T19:31:27;27.40;74.40
12233;DHT22;6179;51.748;8.728;2022-08-03T19:37:29;27.20;75.60
12233;DHT22;6179;51.748;8.728;2022-08-03T19:43:35;26.90;75.70
12233;DHT22;6179;51.748;8.728;2022-08-03T19:49:38;26.70;77.30
12233;DHT22;6179;51.748;8.728;2022-08-03T19:55:42;26.60;77.90
12233;DHT22;6179;51.748;8.728;2022-08-03T20:01:43;26.40;79.60
12233;DHT22;6179;51.748;8.728;2022-08-03T20:07:46;26.20;79.40
12233;DHT22;6179;51.748;8.728;2022-08-03T20:13:46;26.10;80.30
12233;DHT22;6179;51.748;8.728;2022-08-03T20:19:52;26.00;81.60
12233;DHT22;6179;51.748;8.728;2022-08-03T20:25:55;25.80;83.40
12233;DHT22;6179;51.748;8.728;2022-08-03T20:31:56;25.80;83.50
12233;DHT22;6179;51.748;8.728;2022-08-03T20:37:58;25.50;84.30
12233;DHT22;6179;51.748;8.728;2022-08-03T20:43:59;25.30;85.50
12233;DHT22;6179;51.748;8.728;2022-08-03T20:50:02;25.10;86.70
12233;DHT22;6179;51.748;8.728;2022-08-03T20:56:03;24.90;87.20
12233;DHT22;6179;51.748;8.728;2022-08-03T21:02:04;24.80;88.40
12233;DHT22;6179;51.748;8.728;2022-08-03T21:08:06;24.60;88.70
12233;DHT22;6179;51.748;8.728;2022-08-03T21:14:12;24.50;89.20
12233;DHT22;6179;51.748;8.728;2022-08-03T21:20:14;24.40;88.10
12233;DHT22;6179;51.748;8.728;2022-08-03T21:26:18;24.30;88.30
12233;DHT22;6179;51.748;8.728;2022-08-03T21:32:19;24.50;87.30
12233;DHT22;6179;51.748;8.728;2022-08-03T21:38:22;24.30;88.00
12233;DHT22;6179;51.748;8.728;2022-08-03T21:44:23;24.10;88.90
12233;DHT22;6179;51.748;8.728;2022-08-03T21:50:24;23.90;89.00
12233;DHT22;6179;51.748;8.728;2022-08-03T21:56:25;23.80;89.50
12233;DHT22;6179;51.748;8.728;2022-08-03T22:02:29;24.10;88.60
12233;DHT22;6179;51.748;8.728;2022-08-03T22:08:32;23.80;88.90
12233;DHT22;6179;51.748;8.728;2022-08-03T22:14:32;23.60;89.50
12233;DHT22;6179;51.748;8.728;2022-08-03T22:20:33;23.60;89.70
12233;DHT22;6179;51.748;8.728;2022-08-03T22:26:34;23.40;90.20
12233;DHT22;6179;51.748;8.728;2022-08-03T22:32:40;23.30;90.20
12233;DHT22;6179;51.748;8.728;2022-08-03T22:38:41;23.30;89.90
12233;DHT22;6179;51.748;8.728;2022-08-03T22:44:43;23.10;90.00
12233;DHT22;6179;51.748;8.728;2022-08-03T22:50:45;23.00;90.50
12233;DHT22;6179;51.748;8.728;2022-08-03T22:56:48;22.80;91.40
12233;DHT22;6179;51.748;8.728;2022-08-03T23:02:50;22.70;91.70
12233;DHT22;6179;51.748;8.728;2022-08-03T23:08:52;22.60;92.30
12233;DHT22;6179;51.748;8.728;2022-08-03T23:14:55;22.50;92.80
12233;DHT22;6179;51.748;8.728;2022-08-03T23:20:57;22.40;93.30
12233;DHT22;6179;51.748;8.728;2022-08-03T23:27:05;22.30;93.70
12233;DHT22;6179;51.748;8.728;2022-08-03T23:33:07;22.20;94.00
12233;DHT22;6179;51.748;8.728;2022-08-03T23:39:08;22.10;93.70
12233;DHT22;6179;51.748;8.728;2022-08-03T23:45:10;22.00;94.30
